sensor_id;sensor_type;location;lat;lon;timestamp;pressure;altitude;pressure_sealevel;temperature;humidity
11198;BME280;5655;48.744;9.162;2022-07-06T00:00:43;96753.81;;;22.18;100.00
11198;BME280;5655;48.744;9.162;2022-07-06T00:03:08;96754.13;;;22.08;100.00
11198;BME280;5655;48.744;9.162;2022-07-06T00:05:34;96753.00;;;22.22;100.00
11198;BME280;5655;48.744;9.162;2022-07-06T00:07:59;96757.22;;;22.23;100.00
11198;BME280;5655;48.744;9.162;2022-07-06T00:10:24;96758.66;;;22.27;100.00
11198;BME280;5655;48.744;9.162;2022-07-06T00:12:50;96753.66;;;22.26;100.00
11198;BME280;5655;48.744;9.162;2022-07-06T00:15:15;96759.00;;;22.00;100.00
11198;BME280;5655;48.744;9.162;2022-07-06T00:17:40;96749.72;;;22.27;100.00
11198;BME280;5655;48.744;9.162;2022-07-06T00:20:06;96748.34;;;22.35;100.00
11198;BME280;5655;48.744;9.162;2022-07-06T00:22:31;96750.59;;;22.24;100.00
11198;BME280;5655;48.744;9.162;2022-07-06T00:24:57;96745.50;;;22.09;100.00
11198;BME280;5655;48.744;9.162;2022-07-06T00:27:22;96741.25;;;22.08;100.00
11198;BME280;5655;48.744;9.162;2022-07-06T00:29:48;96740.31;;;21.99;100.00
11198;BME280;5655;48.744;9.162;2022-07-06T00:32:13;96750.00;;;22.16;100.00
11198;BME280;5655;48.744;9.162;2022-07-06T00:34:39;96751.97;;;22.15;100.00
11198;BME280;5655;48.744;9.162;2022-07-06T00:37:05;96751.25;;;22.28;100.00
11198;BME280;5655;48.744;9.162;2022-07-06T00:39:31;96755.53;;;22.29;100.00
11198;BME280;5655;48.744;9.162;2022-07-06T00:41:57;96752.06;;;22.12;100.00
11198;BME280;5655;48.744;9.162;2022-07-06T00:44:22;96748.16;;;22.13;100.00
11198;BME280;5655;48.744;9.162;2022-07-06T00:46:47;96750.59;;;22.24;100.00
11198;BME280;5655;48.744;9.162;2022-07-06T00:49:13;96751.63;;;22.13;100.00
11198;BME280;5655;48.744;9.162;2022-07-06T00:51:57;96748.91;;;21.97;100.00
11198;BME280;5655;48.744;9.162;2022-07-06T00:54:23;96751.03;;;21.73;100.00
11198;BME280;5655;48.744;9.162;2022-07-06T00:56:49;96748.38;;;21.54;100.00
11198;BME280;5655;48.744;9.162;2022-07-06T00:59:14;96742.44;;;21.43;100.00
11198;BME280;5655;48.744;9.162;2022-07-06T01:01:40;96747.88;;;21.43;100.00
11198;BME280;5655;48.744;9.162;2022-07-06T01:04:05;96744.66;;;21.48;100.00
11198;BME280;5655;48.744;9.162;2022-07-06T01:06:30;96741.16;;;21.47;100.00
11198;BME280;5655;48.744;9.162;2022-07-06T01:08:56;96740.88;;;21.42;100.00
11198;BME280;5655;48.744;9.162;2022-07-06T01:11:21;96749.06;;;21.58;100.00
11198;BME280;5655;48.744;9.162;2022-07-06T01:13:47;96752.22;;;21.56;100.00
11198;BME280;5655;48.744;9.162;2022-07-06T01:16:13;96741.66;;;21.42;100.00
11198;BME280;5655;48.744;9.162;2022-07-06T01:18:39;96742.75;;;21.45;100.00
11198;BME280;5655;48.744;9.162;2022-07-06T01:21:07;96743.78;;;21.51;100.00
11198;BME280;5655;48.744;9.162;2022-07-06T01:23:38;96739.47;;;21.69;100.00
11198;BME280;5655;48.744;9.162;2022-07-06T01:26:04;96744.16;;;21.53;100.00
11198;BME280;5655;48.744;9.162;2022-07-06T01:28:30;96748.38;;;21.54;100.00
11198;BME280;5655;48.744;9.162;2022-07-06T01:30:55;96742.16;;;21.37;100.00
11198;BME280;5655;48.744;9.162;2022-07-06T01:33:20;96740.31;;;21.50;100.00
11198;BME280;5655;48.744;9.162;2022-07-06T01:35:46;96739.69;;;21.26;100.00
11198;BME280;5655;48.744;9.162;2022-07-06T01:38:11;96732.97;;;21.11;100.00
11198;BME280;5655;48.744;9.162;2022-07-06T01:40:37;96730.75;;;21.06;100.00
11198;BME280;5655;48.744;9.162;2022-07-06T01:43:02;96728.47;;;21.05;100.00
11198;BME280;5655;48.744;9.162;2022-07-06T01:45:31;96729.09;;;21.12;100.00
11198;BME280;5655;48.744;9.162;2022-07-06T01:47:57;96736.22;;;21.42;100.00
11198;BME280;5655;48.744;9.162;2022-07-06T01:50:22;96731.34;;;20.98;100.00
11198;BME280;5655;48.744;9.162;2022-07-06T01:52:48;96741.69;;;20.67;100.00
11198;BME280;5655;48.744;9.162;2022-07-06T01:55:13;96732.38;;;20.25;100.00
11198;BME280;5655;48.744;9.162;2022-07-06T01:57:38;96729.13;;;20.33;100.00
11198;BME280;5655;48.744;9.162;2022-07-06T02:00:06;96737.88;;;20.45;100.00
11198;BME280;5655;48.744;9.162;2022-07-06T02:02:33;96742.75;;;20.53;100.00
11198;BME280;5655;48.744;9.162;2022-07-06T02:04:58;96747.06;;;20.51;100.00
11198;BME280;5655;48.744;9.162;2022-07-06T02:07:23;96746.56;;;20.56;100.00
11198;BME280;5655;48.744;9.162;2022-07-06T02:09:49;96745.19;;;20.48;100.00
11198;BME280;5655;48.744;9.162;2022-07-06T02:12:14;96750.25;;;20.46;100.00
11198;BME280;5655;48.744;9.162;2022-07-06T02:14:39;96747.53;;;20.46;100.00
11198;BME280;5655;48.744;9.162;2022-07-06T02:17:05;96750.03;;;20.36;100.00
11198;BME280;5655;48.744;9.162;2022-07-06T02:19:30;96743.88;;;20.36;100.00
11198;BME280;5655;48.744;9.162;2022-07-06T02:21:55;96750.88;;;20.33;100.00
11198;BME280;5655;48.744;9.162;2022-07-06T02:24:21;96747.22;;;20.20;100.00
11198;BME280;5655;48.744;9.162;2022-07-06T02:26:46;96743.69;;;20.23;100.00
11198;BME280;5655;48.744;9.162;2022-07-06T02:29:12;96749.44;;;20.25;100.00
11198;BME280;5655;48.744;9.162;2022-07-06T02:31:38;96747.91;;;20.24;100.00
11198;BME280;5655;48.744;9.162;2022-07-06T02:34:03;96754.56;;;20.23;100.00
11198;BME280;5655;48.744;9.162;2022-07-06T02:36:28;96753.78;;;20.23;100.00
11198;BME280;5655;48.744;9.162;2022-07-06T02:38:54;96764.91;;;20.28;100.00
11198;BME280;5655;48.744;9.162;2022-07-06T02:41:19;96758.78;;;20.24;100.00
11198;BME280;5655;48.744;9.162;2022-07-06T02:43:44;96758.22;;;20.13;100.00
11198;BME280;5655;48.744;9.162;2022-07-06T02:46:10;96761.94;;;20.23;100.00
11198;BME280;5655;48.744;9.162;2022-07-06T02:48:35;96764.97;;;20.05;100.00
11198;BME280;5655;48.744;9.162;2022-07-06T02:51:00;96773.19;;;20.02;100.00
11198;BME280;5655;48.744;9.162;2022-07-06T02:53:26;96772.41;;;19.78;100.00
11198;BME280;5655;48.744;9.162;2022-07-06T02:55:52;96773.09;;;19.82;100.00
11198;BME280;5655;48.744;9.162;2022-07-06T02:58:17;96779.63;;;19.88;100.00
11198;BME280;5655;48.744;9.162;2022-07-06T03:00:42;96778.09;;;20.10;100.00
11198;BME280;5655;48.744;9.162;2022-07-06T03:03:08;96771.63;;;19.77;100.00
11198;BME280;5655;48.744;9.162;2022-07-06T03:05:34;96777.88;;;19.74;100.00
11198;BME280;5655;48.744;9.162;2022-07-06T03:07:59;96779.84;;;19.74;100.00
11198;BME280;5655;48.744;9.162;2022-07-06T03:10:25;96775.81;;;19.82;100.00
11198;BME280;5655;48.744;9.162;2022-07-06T03:12:50;96781.34;;;20.02;100.00
11198;BME280;5655;48.744;9.162;2022-07-06T03:15:15;96787.63;;;19.95;100.00
11198;BME280;5655;48.744;9.162;2022-07-06T03:17:41;96780.75;;;19.64;100.00
11198;BME280;5655;48.744;9.162;2022-07-06T03:20:06;96785.22;;;19.51;100.00
11198;BME280;5655;48.744;9.162;2022-07-06T03:22:32;96786.59;;;19.35;100.00
11198;BME280;5655;48.744;9.162;2022-07-06T03:24:57;96775.66;;;19.39;100.00
11198;BME280;5655;48.744;9.162;2022-07-06T03:27:23;96782.00;;;19.29;100.00
11198;BME280;5655;48.744;9.162;2022-07-06T03:29:48;96775.31;;;19.10;100.00
11198;BME280;5655;48.744;9.162;2022-07-06T03:32:13;96786.22;;;19.03;100.00
11198;BME280;5655;48.744;9.162;2022-07-06T03:34:39;96777.19;;;19.13;100.00
11198;BME280;5655;48.744;9.162;2022-07-06T03:37:04;96785.22;;;19.20;100.00
11198;BME280;5655;48.744;9.162;2022-07-06T03:39:31;96786.22;;;19.33;100.00
11198;BME280;5655;48.744;9.162;2022-07-06T03:41:56;96778.09;;;19.03;100.00
11198;BME280;5655;48.744;9.162;2022-07-06T03:44:21;96780.34;;;19.08;100.00
11198;BME280;5655;48.744;9.162;2022-07-06T03:46:47;96775.19;;;19.17;100.00
11198;BME280;5655;48.744;9.162;2022-07-06T03:49:12;96772.41;;;18.94;100.00
11198;BME280;5655;48.744;9.162;2022-07-06T03:51:38;96783.16;;;19.01;100.00
11198;BME280;5655;48.744;9.162;2022-07-06T03:54:04;96782.13;;;19.22;100.00
11198;BME280;5655;48.744;9.162;2022-07-06T03:56:30;96771.25;;;19.22;100.00
11198;BME280;5655;48.744;9.162;2022-07-06T03:58:57;96787.78;;;19.04;100.00
11198;BME280;5655;48.744;9.162;2022-07-06T04:01:23;96777.84;;;18.94;100.00
11198;BME280;5655;48.744;9.162;2022-07-06T04:03:49;96776.16;;;19.03;100.00
11198;BME280;5655;48.744;9.162;2022-07-06T04:06:14;96787.88;;;18.97;100.00
11198;BME280;5655;48.744;9.162;2022-07-06T04:08:40;96785.22;;;18.90;100.00
11198;BME280;5655;48.744;9.162;2022-07-06T04:11:05;96788.59;;;19.01;100.00
11198;BME280;5655;48.744;9.162;2022-07-06T04:13:30;96783.00;;;19.15;100.00
11198;BME280;5655;48.744;9.162;2022-07-06T04:15:56;96786.78;;;19.21;100.00
11198;BME280;5655;48.744;9.162;2022-07-06T04:18:21;96793.50;;;18.79;100.00
11198;BME280;5655;48.744;9.162;2022-07-06T04:20:46;96792.50;;;18.66;100.00
11198;BME280;5655;48.744;9.162;2022-07-06T04:23:12;96790.63;;;18.59;100.00
11198;BME280;5655;48.744;9.162;2022-07-06T04:25:37;96788.28;;;18.62;100.00
11198;BME280;5655;48.744;9.162;2022-07-06T04:28:03;96801.59;;;18.45;100.00
11198;BME280;5655;48.744;9.162;2022-07-06T04:30:28;96793.78;;;18.54;100.00
11198;BME280;5655;48.744;9.162;2022-07-06T04:32:54;96801.41;;;18.67;100.00
11198;BME280;5655;48.744;9.162;2022-07-06T04:35:21;96801.75;;;18.69;100.00
11198;BME280;5655;48.744;9.162;2022-07-06T04:37:46;96790.66;;;18.56;100.00
11198;BME280;5655;48.744;9.162;2022-07-06T04:40:12;96801.47;;;18.59;100.00
11198;BME280;5655;48.744;9.162;2022-07-06T04:42:38;96801.06;;;18.61;100.00
11198;BME280;5655;48.744;9.162;2022-07-06T04:45:04;96797.53;;;18.64;100.00
11198;BME280;5655;48.744;9.162;2022-07-06T04:47:29;96801.84;;;18.62;100.00
11198;BME280;5655;48.744;9.162;2022-07-06T04:49:55;96793.63;;;18.69;100.00
11198;BME280;5655;48.744;9.162;2022-07-06T04:52:20;96807.59;;;18.67;100.00
11198;BME280;5655;48.744;9.162;2022-07-06T04:54:46;96801.75;;;18.69;100.00
11198;BME280;5655;48.744;9.162;2022-07-06T04:57:11;96805.75;;;18.91;100.00
11198;BME280;5655;48.744;9.162;2022-07-06T04:59:37;96802.22;;;18.64;100.00
11198;BME280;5655;48.744;9.162;2022-07-06T05:02:03;96805.94;;;18.77;100.00
11198;BME280;5655;48.744;9.162;2022-07-06T05:04:28;96803.81;;;18.57;100.00
11198;BME280;5655;48.744;9.162;2022-07-06T05:06:54;96811.53;;;18.63;100.00
11198;BME280;5655;48.744;9.162;2022-07-06T05:09:19;96809.88;;;18.72;100.00
11198;BME280;5655;48.744;9.162;2022-07-06T05:11:45;96806.69;;;18.77;100.00
11198;BME280;5655;48.744;9.162;2022-07-06T05:14:10;96811.63;;;18.86;100.00
11198;BME280;5655;48.744;9.162;2022-07-06T05:16:35;96814.03;;;18.80;100.00
11198;BME280;5655;48.744;9.162;2022-07-06T05:19:01;96822.53;;;18.82;100.00
11198;BME280;5655;48.744;9.162;2022-07-06T05:21:26;96826.41;;;19.15;100.00
11198;BME280;5655;48.744;9.162;2022-07-06T05:23:51;96819.16;;;19.35;100.00
11198;BME280;5655;48.744;9.162;2022-07-06T05:26:17;96826.59;;;19.62;100.00
11198;BME280;5655;48.744;9.162;2022-07-06T05:28:42;96820.53;;;19.51;100.00
11198;BME280;5655;48.744;9.162;2022-07-06T05:31:08;96820.34;;;19.34;100.00
11198;BME280;5655;48.744;9.162;2022-07-06T05:33:33;96817.63;;;19.34;100.00
11198;BME280;5655;48.744;9.162;2022-07-06T05:35:58;96824.69;;;19.28;100.00
11198;BME280;5655;48.744;9.162;2022-07-06T05:38:24;96828.19;;;19.25;100.00
11198;BME280;5655;48.744;9.162;2022-07-06T05:40:50;96823.19;;;19.24;100.00
11198;BME280;5655;48.744;9.162;2022-07-06T05:43:16;96830.88;;;19.29;100.00
11198;BME280;5655;48.744;9.162;2022-07-06T05:45:41;96825.44;;;19.29;100.00
11198;BME280;5655;48.744;9.162;2022-07-06T05:48:06;96814.38;;;19.46;100.00
11198;BME280;5655;48.744;9.162;2022-07-06T05:50:50;96819.00;;;19.50;100.00
11198;BME280;5655;48.744;9.162;2022-07-06T05:53:15;96822.56;;;19.70;100.00
11198;BME280;5655;48.744;9.162;2022-07-06T05:55:41;96826.31;;;19.79;100.00
11198;BME280;5655;48.744;9.162;2022-07-06T05:58:06;96834.22;;;19.70;100.00
11198;BME280;5655;48.744;9.162;2022-07-06T06:00:32;96827.44;;;19.82;100.00
11198;BME280;5655;48.744;9.162;2022-07-06T06:02:57;96828.75;;;19.97;100.00
11198;BME280;5655;48.744;9.162;2022-07-06T06:05:23;96834.44;;;20.06;100.00
11198;BME280;5655;48.744;9.162;2022-07-06T06:07:48;96835.88;;;20.14;100.00
11198;BME280;5655;48.744;9.162;2022-07-06T06:10:16;96835.88;;;20.37;100.00
11198;BME280;5655;48.744;9.162;2022-07-06T06:12:42;96838.69;;;20.54;100.00
11198;BME280;5655;48.744;9.162;2022-07-06T06:15:09;96845.19;;;20.60;100.00
11198;BME280;5655;48.744;9.162;2022-07-06T06:17:38;96843.38;;;20.53;100.00
11198;BME280;5655;48.744;9.162;2022-07-06T06:20:05;96846.28;;;20.43;100.00
11198;BME280;5655;48.744;9.162;2022-07-06T06:22:43;96848.22;;;20.42;100.00
11198;BME280;5655;48.744;9.162;2022-07-06T06:25:09;96849.53;;;20.34;100.00
11198;BME280;5655;48.744;9.162;2022-07-06T06:27:34;96859.56;;;20.37;100.00
11198;BME280;5655;48.744;9.162;2022-07-06T06:29:59;96847.47;;;20.42;100.00
11198;BME280;5655;48.744;9.162;2022-07-06T06:32:25;96851.00;;;20.62;100.00
11198;BME280;5655;48.744;9.162;2022-07-06T06:34:50;96856.53;;;20.78;100.00
11198;BME280;5655;48.744;9.162;2022-07-06T06:37:15;96849.84;;;21.02;100.00
11198;BME280;5655;48.744;9.162;2022-07-06T06:39:41;96855.19;;;21.06;100.00
11198;BME280;5655;48.744;9.162;2022-07-06T06:42:06;96860.00;;;21.21;100.00
11198;BME280;5655;48.744;9.162;2022-07-06T06:44:32;96863.75;;;21.27;100.00
11198;BME280;5655;48.744;9.162;2022-07-06T06:46:57;96862.16;;;21.30;100.00
11198;BME280;5655;48.744;9.162;2022-07-06T06:49:22;96861.72;;;21.32;100.00
11198;BME280;5655;48.744;9.162;2022-07-06T06:51:48;96863.31;;;21.29;100.00
11198;BME280;5655;48.744;9.162;2022-07-06T06:54:13;96866.03;;;21.09;100.00
11198;BME280;5655;48.744;9.162;2022-07-06T06:56:38;96863.53;;;21.18;100.00
11198;BME280;5655;48.744;9.162;2022-07-06T06:59:04;96866.41;;;21.31;100.00
11198;BME280;5655;48.744;9.162;2022-07-06T07:01:29;96867.34;;;21.60;100.00
11198;BME280;5655;48.744;9.162;2022-07-06T07:03:55;96869.88;;;21.87;100.00
11198;BME280;5655;48.744;9.162;2022-07-06T07:06:21;96852.19;;;22.11;100.00
11198;BME280;5655;48.744;9.162;2022-07-06T07:08:47;96859.50;;;21.98;100.00
11198;BME280;5655;48.744;9.162;2022-07-06T07:11:13;96851.31;;;22.14;100.00
11198;BME280;5655;48.744;9.162;2022-07-06T07:13:38;96864.13;;;22.17;100.00
11198;BME280;5655;48.744;9.162;2022-07-06T07:16:04;96858.97;;;22.52;100.00
11198;BME280;5655;48.744;9.162;2022-07-06T07:18:29;96856.31;;;22.65;100.00
11198;BME280;5655;48.744;9.162;2022-07-06T07:20:54;96853.34;;;22.59;100.00
11198;BME280;5655;48.744;9.162;2022-07-06T07:23:20;96852.31;;;22.69;100.00
11198;BME280;5655;48.744;9.162;2022-07-06T07:25:45;96863.16;;;22.73;100.00
11198;BME280;5655;48.744;9.162;2022-07-06T07:28:10;96843.75;;;22.67;100.00
11198;BME280;5655;48.744;9.162;2022-07-06T07:30:36;96847.63;;;22.98;100.00
11198;BME280;5655;48.744;9.162;2022-07-06T07:33:01;96854.94;;;23.01;100.00
11198;BME280;5655;48.744;9.162;2022-07-06T07:35:27;96849.66;;;23.23;100.00
11198;BME280;5655;48.744;9.162;2022-07-06T07:37:53;96853.75;;;23.02;100.00
11198;BME280;5655;48.744;9.162;2022-07-06T07:40:18;96854.94;;;23.01;100.00
11198;BME280;5655;48.744;9.162;2022-07-06T07:42:44;96847.19;;;22.71;100.00
11198;BME280;5655;48.744;9.162;2022-07-06T07:45:10;96841.22;;;22.60;100.00
11198;BME280;5655;48.744;9.162;2022-07-06T07:47:36;96843.44;;;22.49;100.00
11198;BME280;5655;48.744;9.162;2022-07-06T07:50:02;96845.75;;;22.50;100.00
11198;BME280;5655;48.744;9.162;2022-07-06T07:52:27;96838.72;;;22.82;100.00
11198;BME280;5655;48.744;9.162;2022-07-06T07:54:53;96847.25;;;22.84;100.00
11198;BME280;5655;48.744;9.162;2022-07-06T07:57:18;96848.88;;;22.81;100.00
11198;BME280;5655;48.744;9.162;2022-07-06T07:59:43;96847.91;;;22.88;100.00
11198;BME280;5655;48.744;9.162;2022-07-06T08:02:09;96845.06;;;22.91;100.00
11198;BME280;5655;48.744;9.162;2022-07-06T08:04:34;96845.41;;;22.93;100.00
11198;BME280;5655;48.744;9.162;2022-07-06T08:07:00;96845.19;;;23.29;100.00
11198;BME280;5655;48.744;9.162;2022-07-06T08:09:25;96845.38;;;23.22;100.00
11198;BME280;5655;48.744;9.162;2022-07-06T08:11:51;96852.75;;;23.38;100.00
11198;BME280;5655;48.744;9.162;2022-07-06T08:14:16;96856.53;;;23.15;100.00
11198;BME280;5655;48.744;9.162;2022-07-06T08:16:42;96852.47;;;23.48;100.00
11198;BME280;5655;48.744;9.162;2022-07-06T08:19:08;96852.00;;;23.37;100.00
11198;BME280;5655;48.744;9.162;2022-07-06T08:21:34;96844.44;;;23.41;100.00
11198;BME280;5655;48.744;9.162;2022-07-06T08:24:00;96853.00;;;23.56;100.00
11198;BME280;5655;48.744;9.162;2022-07-06T08:26:27;96856.34;;;23.35;100.00
11198;BME280;5655;48.744;9.162;2022-07-06T08:28:52;96848.41;;;23.53;100.00
11198;BME280;5655;48.744;9.162;2022-07-06T08:31:18;96843.63;;;23.57;100.00
11198;BME280;5655;48.744;9.162;2022-07-06T08:33:43;96847.22;;;23.67;100.00
11198;BME280;5655;48.744;9.162;2022-07-06T08:36:08;96856.22;;;23.80;100.00
11198;BME280;5655;48.744;9.162;2022-07-06T08:38:34;96854.88;;;23.97;100.00
11198;BME280;5655;48.744;9.162;2022-07-06T08:40:59;96851.81;;;23.82;100.00
11198;BME280;5655;48.744;9.162;2022-07-06T08:43:25;96848.75;;;23.55;100.00
11198;BME280;5655;48.744;9.162;2022-07-06T08:45:53;96850.72;;;23.55;100.00
11198;BME280;5655;48.744;9.162;2022-07-06T08:48:22;96847.38;;;23.34;100.00
11198;BME280;5655;48.744;9.162;2022-07-06T08:50:48;96850.91;;;23.47;100.00
11198;BME280;5655;48.744;9.162;2022-07-06T08:53:16;96848.41;;;23.53;100.00
11198;BME280;5655;48.744;9.162;2022-07-06T08:55:42;96857.41;;;23.66;100.00
11198;BME280;5655;48.744;9.162;2022-07-06T08:58:07;96851.94;;;23.66;100.00
11198;BME280;5655;48.744;9.162;2022-07-06T09:00:33;96851.63;;;23.77;100.00
11198;BME280;5655;48.744;9.162;2022-07-06T09:02:59;96851.81;;;23.82;100.00
11198;BME280;5655;48.744;9.162;2022-07-06T09:05:25;96856.44;;;23.85;100.00
11198;BME280;5655;48.744;9.162;2022-07-06T09:07:51;96860.91;;;23.92;100.00
11198;BME280;5655;48.744;9.162;2022-07-06T09:10:18;96852.38;;;23.77;100.00
11198;BME280;5655;48.744;9.162;2022-07-06T09:12:44;96860.25;;;24.01;100.00
11198;BME280;5655;48.744;9.162;2022-07-06T09:15:09;96857.41;;;24.17;100.00
11198;BME280;5655;48.744;9.162;2022-07-06T09:17:38;96863.88;;;24.23;100.00
11198;BME280;5655;48.744;9.162;2022-07-06T09:20:07;96872.66;;;24.52;100.00
11198;BME280;5655;48.744;9.162;2022-07-06T09:22:34;96874.72;;;24.61;100.00
11198;BME280;5655;48.744;9.162;2022-07-06T09:25:10;96871.16;;;24.85;100.00
11198;BME280;5655;48.744;9.162;2022-07-06T09:27:41;96869.25;;;24.95;100.00
11198;BME280;5655;48.744;9.162;2022-07-06T09:30:08;96873.91;;;24.85;100.00
11198;BME280;5655;48.744;9.162;2022-07-06T09:32:40;96869.19;;;24.39;100.00
11198;BME280;5655;48.744;9.162;2022-07-06T09:35:06;96877.84;;;24.50;100.00
11198;BME280;5655;48.744;9.162;2022-07-06T09:37:32;96879.13;;;24.58;100.00
11198;BME280;5655;48.744;9.162;2022-07-06T09:39:57;96876.00;;;24.69;100.00
11198;BME280;5655;48.744;9.162;2022-07-06T09:42:26;96875.84;;;24.98;100.00
11198;BME280;5655;48.744;9.162;2022-07-06T09:44:52;96878.88;;;25.00;100.00
11198;BME280;5655;48.744;9.162;2022-07-06T09:47:18;96880.03;;;25.11;100.00
11198;BME280;5655;48.744;9.162;2022-07-06T09:49:45;96894.97;;;25.32;100.00
11198;BME280;5655;48.744;9.162;2022-07-06T09:52:11;96882.41;;;25.22;100.00
11198;BME280;5655;48.744;9.162;2022-07-06T09:54:40;96879.34;;;25.20;100.00
11198;BME280;5655;48.744;9.162;2022-07-06T09:57:06;96883.09;;;25.57;100.00
11198;BME280;5655;48.744;9.162;2022-07-06T09:59:33;96877.75;;;25.10;100.00
11198;BME280;5655;48.744;9.162;2022-07-06T10:02:01;96884.38;;;25.43;100.00
11198;BME280;5655;48.744;9.162;2022-07-06T10:04:27;96895.72;;;25.54;100.00
11198;BME280;5655;48.744;9.162;2022-07-06T10:06:54;96885.84;;;25.88;100.00
11198;BME280;5655;48.744;9.162;2022-07-06T10:09:21;96888.06;;;26.11;100.00
11198;BME280;5655;48.744;9.162;2022-07-06T10:11:48;96893.50;;;25.40;100.00
11198;BME280;5655;48.744;9.162;2022-07-06T10:14:20;96892.53;;;25.34;100.00
11198;BME280;5655;48.744;9.162;2022-07-06T10:16:46;96886.84;;;24.72;100.00
11198;BME280;5655;48.744;9.162;2022-07-06T10:19:14;96898.00;;;25.12;100.00
11198;BME280;5655;48.744;9.162;2022-07-06T10:21:40;96902.03;;;25.42;100.00
11198;BME280;5655;48.744;9.162;2022-07-06T10:24:07;96896.69;;;25.17;100.00
11198;BME280;5655;48.744;9.162;2022-07-06T10:26:34;96898.91;;;25.74;100.00
11198;BME280;5655;48.744;9.162;2022-07-06T10:29:02;96895.16;;;25.90;100.00
11198;BME280;5655;48.744;9.162;2022-07-06T10:31:28;96883.34;;;26.11;100.00
11198;BME280;5655;48.744;9.162;2022-07-06T10:33:56;96900.50;;;25.94;100.00
11198;BME280;5655;48.744;9.162;2022-07-06T10:36:22;96895.81;;;25.72;100.00
11198;BME280;5655;48.744;9.162;2022-07-06T10:38:50;96894.41;;;26.30;100.00
11198;BME280;5655;48.744;9.162;2022-07-06T10:41:16;96896.78;;;26.68;100.00
11198;BME280;5655;48.744;9.162;2022-07-06T10:43:44;96893.16;;;26.89;100.00
11198;BME280;5655;48.744;9.162;2022-07-06T10:46:14;96894.09;;;26.95;100.00
11198;BME280;5655;48.744;9.162;2022-07-06T10:48:41;96885.69;;;27.07;100.00
11198;BME280;5655;48.744;9.162;2022-07-06T10:51:08;96886.44;;;27.08;99.08
11198;BME280;5655;48.744;9.162;2022-07-06T10:53:37;96889.47;;;27.10;100.00
11198;BME280;5655;48.744;9.162;2022-07-06T10:56:08;96885.78;;;27.40;100.00
11198;BME280;5655;48.744;9.162;2022-07-06T11:01:14;96886.13;;;26.79;99.87
11198;BME280;5655;48.744;9.162;2022-07-06T11:03:40;96889.41;;;26.46;100.00
11198;BME280;5655;48.744;9.162;2022-07-06T11:11:14;96888.31;;;25.95;100.00
11198;BME280;5655;48.744;9.162;2022-07-06T11:16:16;96886.34;;;26.35;100.00
11198;BME280;5655;48.744;9.162;2022-07-06T11:18:49;96879.22;;;26.56;100.00
11198;BME280;5655;48.744;9.162;2022-07-06T11:21:23;96884.50;;;26.23;99.69
11198;BME280;5655;48.744;9.162;2022-07-06T11:23:50;96877.09;;;26.60;100.00
11198;BME280;5655;48.744;9.162;2022-07-06T11:26:16;96872.25;;;27.00;97.71
11198;BME280;5655;48.744;9.162;2022-07-06T11:28:45;96874.44;;;27.66;100.00
11198;BME280;5655;48.744;9.162;2022-07-06T11:31:10;96869.28;;;28.01;95.16
11198;BME280;5655;48.744;9.162;2022-07-06T11:33:36;96867.38;;;27.83;95.11
11198;BME280;5655;48.744;9.162;2022-07-06T11:36:18;96870.94;;;28.07;95.08
11198;BME280;5655;48.744;9.162;2022-07-06T11:38:46;96871.78;;;27.89;93.39
11198;BME280;5655;48.744;9.162;2022-07-06T11:41:12;96870.25;;;27.88;93.89
11198;BME280;5655;48.744;9.162;2022-07-06T11:43:42;96867.44;;;27.46;93.00
11198;BME280;5655;48.744;9.162;2022-07-06T11:46:25;96868.00;;;27.78;94.39
11198;BME280;5655;48.744;9.162;2022-07-06T11:49:06;96850.47;;;27.57;90.51
11198;BME280;5655;48.744;9.162;2022-07-06T11:51:33;96861.91;;;28.07;95.74
11198;BME280;5655;48.744;9.162;2022-07-06T11:54:02;96863.66;;;27.95;86.32
11198;BME280;5655;48.744;9.162;2022-07-06T11:56:31;96863.06;;;27.91;87.06
11198;BME280;5655;48.744;9.162;2022-07-06T11:58:59;96860.06;;;27.71;91.61
11198;BME280;5655;48.744;9.162;2022-07-06T12:01:28;96852.59;;;27.71;89.72
11198;BME280;5655;48.744;9.162;2022-07-06T12:04:01;96866.56;;;27.49;97.29
11198;BME280;5655;48.744;9.162;2022-07-06T12:06:27;96849.19;;;27.16;97.19
11198;BME280;5655;48.744;9.162;2022-07-06T12:08:55;96851.84;;;27.62;100.00
11198;BME280;5655;48.744;9.162;2022-07-06T12:11:30;96838.91;;;27.95;99.98
11198;BME280;5655;48.744;9.162;2022-07-06T12:13:58;96847.91;;;27.53;91.91
11198;BME280;5655;48.744;9.162;2022-07-06T12:16:31;96843.81;;;27.91;91.12
11198;BME280;5655;48.744;9.162;2022-07-06T12:18:58;96845.28;;;28.01;92.38
11198;BME280;5655;48.744;9.162;2022-07-06T12:21:24;96844.16;;;27.75;91.56
11198;BME280;5655;48.744;9.162;2022-07-06T12:23:51;96852.38;;;27.84;89.53
11198;BME280;5655;48.744;9.162;2022-07-06T12:26:20;96844.81;;;28.35;88.96
11198;BME280;5655;48.744;9.162;2022-07-06T12:28:46;96838.78;;;28.70;84.74
11198;BME280;5655;48.744;9.162;2022-07-06T12:31:53;96845.09;;;28.61;77.53
11198;BME280;5655;48.744;9.162;2022-07-06T12:34:28;96846.69;;;28.53;81.49
11198;BME280;5655;48.744;9.162;2022-07-06T12:36:59;96851.19;;;28.41;84.53
11198;BME280;5655;48.744;9.162;2022-07-06T12:39:28;96837.88;;;28.40;83.70
11198;BME280;5655;48.744;9.162;2022-07-06T12:42:04;96849.72;;;28.55;84.98
11198;BME280;5655;48.744;9.162;2022-07-06T12:44:30;96829.94;;;28.42;86.32
11198;BME280;5655;48.744;9.162;2022-07-06T12:49:28;96840.28;;;27.90;84.94
11198;BME280;5655;48.744;9.162;2022-07-06T12:54:27;96846.00;;;27.78;91.96
11198;BME280;5655;48.744;9.162;2022-07-06T12:59:28;96834.41;;;28.78;84.69
11198;BME280;5655;48.744;9.162;2022-07-06T13:01:54;96840.06;;;28.60;76.86
11198;BME280;5655;48.744;9.162;2022-07-06T13:04:23;96844.63;;;28.15;79.92
11198;BME280;5655;48.744;9.162;2022-07-06T13:06:48;96847.81;;;28.47;76.22
11198;BME280;5655;48.744;9.162;2022-07-06T13:09:14;96840.06;;;28.36;77.38
11198;BME280;5655;48.744;9.162;2022-07-06T13:11:41;96845.03;;;28.23;78.85
11198;BME280;5655;48.744;9.162;2022-07-06T13:14:06;96844.09;;;27.93;80.02
11198;BME280;5655;48.744;9.162;2022-07-06T13:16:34;96836.41;;;27.97;85.01